sensor_id;sensor_type;location;lat;lon;timestamp;temperature;humidity
5246;DHT22;54412;51.206;6.888;2023-12-20T00:01:25;8.50;99.90
5246;DHT22;54412;51.206;6.888;2023-12-20T00:03:51;8.50;99.90
5246;DHT22;54412;51.206;6.888;2023-12-20T00:06:16;8.50;99.90
5246;DHT22;54412;51.206;6.888;2023-12-20T00:08:42;8.50;99.90
5246;DHT22;54412;51.206;6.888;2023-12-20T00:11:08;8.50;99.90
5246;DHT22;54412;51.206;6.888;2023-12-20T00:13:33;8.40;99.90
5246;DHT22;54412;51.206;6.888;2023-12-20T00:15:59;8.40;99.90
5246;DHT22;54412;51.206;6.888;2023-12-20T00:18:25;8.40;99.90
5246;DHT22;54412;51.206;6.888;2023-12-20T00:20:50;8.40;99.90
5246;DHT22;54412;51.206;6.888;2023-12-20T00:23:16;8.40;99.90
5246;DHT22;54412;51.206;6.888;2023-12-20T00:25:42;8.40;99.90
5246;DHT22;54412;51.206;6.888;2023-12-20T00:28:07;8.40;99.90
5246;DHT22;54412;51.206;6.888;2023-12-20T00:30:33;8.40;99.90
5246;DHT22;54412;51.206;6.888;2023-12-20T00:32:59;8.40;99.90
5246;DHT22;54412;51.206;6.888;2023-12-20T00:35:24;8.40;99.90
5246;DHT22;54412;51.206;6.888;2023-12-20T00:37:50;8.50;99.90
5246;DHT22;54412;51.206;6.888;2023-12-20T00:40:16;8.40;99.90
5246;DHT22;54412;51.206;6.888;2023-12-20T00:42:41;8.40;99.90
5246;DHT22;54412;51.206;6.888;2023-12-20T00:45:07;8.40;99.90
5246;DHT22;54412;51.206;6.888;2023-12-20T00:47:33;8.50;99.90
5246;DHT22;54412;51.206;6.888;2023-12-20T00:49:59;8.40;99.90
5246;DHT22;54412;51.206;6.888;2023-12-20T00:52:25;8.50;99.90
5246;DHT22;54412;51.206;6.888;2023-12-20T00:54:51;8.40;99.90
5246;DHT22;54412;51.206;6.888;2023-12-20T00:57:17;8.40;99.90
5246;DHT22;54412;51.206;6.888;2023-12-20T00:59:43;8.40;99.90
5246;DHT22;54412;51.206;6.888;2023-12-20T01:02:08;8.40;99.90
5246;DHT22;54412;51.206;6.888;2023-12-20T01:04:35;8.40;99.90
5246;DHT22;54412;51.206;6.888;2023-12-20T01:07:01;8.40;99.90
5246;DHT22;54412;51.206;6.888;2023-12-20T01:09:27;8.40;99.90
5246;DHT22;54412;51.206;6.888;2023-12-20T01:11:53;8.30;99.90
5246;DHT22;54412;51.206;6.888;2023-12-20T01:14:19;8.50;99.90
5246;DHT22;54412;51.206;6.888;2023-12-20T01:16:45;8.40;99.90
5246;DHT22;54412;51.206;6.888;2023-12-20T01:19:10;8.30;99.90
5246;DHT22;54412;51.206;6.888;2023-12-20T01:21:36;8.40;99.90
5246;DHT22;54412;51.206;6.888;2023-12-20T01:24:02;8.40;99.90
5246;DHT22;54412;51.206;6.888;2023-12-20T01:26:28;8.40;99.90
5246;DHT22;54412;51.206;6.888;2023-12-20T01:28:53;8.20;99.90
5246;DHT22;54412;51.206;6.888;2023-12-20T01:31:19;8.20;99.90
5246;DHT22;54412;51.206;6.888;2023-12-20T01:33:45;8.20;99.90
5246;DHT22;54412;51.206;6.888;2023-12-20T01:36:11;8.20;99.90
5246;DHT22;54412;51.206;6.888;2023-12-20T01:38:37;8.20;99.90
5246;DHT22;54412;51.206;6.888;2023-12-20T01:41:03;8.20;99.90
5246;DHT22;54412;51.206;6.888;2023-12-20T01:43:30;8.20;99.90
5246;DHT22;54412;51.206;6.888;2023-12-20T01:45:59;8.20;99.90
5246;DHT22;54412;51.206;6.888;2023-12-20T01:48:25;8.20;99.90
5246;DHT22;54412;51.206;6.888;2023-12-20T01:50:53;8.10;99.90
5246;DHT22;54412;51.206;6.888;2023-12-20T01:53:21;8.10;99.90
5246;DHT22;54412;51.206;6.888;2023-12-20T01:55:50;8.10;99.90
5246;DHT22;54412;51.206;6.888;2023-12-20T01:58:20;8.10;99.90
5246;DHT22;54412;51.206;6.888;2023-12-20T02:00:46;8.10;99.90
5246;DHT22;54412;51.206;6.888;2023-12-20T02:03:12;8.00;99.90
5246;DHT22;54412;51.206;6.888;2023-12-20T02:05:39;8.00;99.90
5246;DHT22;54412;51.206;6.888;2023-12-20T02:08:06;8.00;99.90
5246;DHT22;54412;51.206;6.888;2023-12-20T02:10:32;8.00;99.90
5246;DHT22;54412;51.206;6.888;2023-12-20T02:12:58;7.90;99.90
5246;DHT22;54412;51.206;6.888;2023-12-20T02:15:24;7.80;99.90
5246;DHT22;54412;51.206;6.888;2023-12-20T02:17:50;7.80;99.90
5246;DHT22;54412;51.206;6.888;2023-12-20T02:20:16;7.80;99.90
5246;DHT22;54412;51.206;6.888;2023-12-20T02:22:42;7.80;99.90
5246;DHT22;54412;51.206;6.888;2023-12-20T02:25:07;7.80;99.90
5246;DHT22;54412;51.206;6.888;2023-12-20T02:27:34;7.80;99.90
5246;DHT22;54412;51.206;6.888;2023-12-20T02:30:00;7.80;99.90
5246;DHT22;54412;51.206;6.888;2023-12-20T02:32:26;7.80;99.90
5246;DHT22;54412;51.206;6.888;2023-12-20T02:34:55;7.70;99.90
5246;DHT22;54412;51.206;6.888;2023-12-20T02:37:21;7.70;99.90
5246;DHT22;54412;51.206;6.888;2023-12-20T02:39:47;7.70;99.90
5246;DHT22;54412;51.206;6.888;2023-12-20T02:42:13;7.60;99.90
5246;DHT22;54412;51.206;6.888;2023-12-20T02:44:38;7.70;99.90
5246;DHT22;54412;51.206;6.888;2023-12-20T02:47:04;7.70;99.90
5246;DHT22;54412;51.206;6.888;2023-12-20T02:49:30;7.60;99.90
5246;DHT22;54412;51.206;6.888;2023-12-20T02:51:56;7.60;99.90
5246;DHT22;54412;51.206;6.888;2023-12-20T02:54:21;7.70;99.90
5246;DHT22;54412;51.206;6.888;2023-12-20T02:56:48;7.60;99.90
5246;DHT22;54412;51.206;6.888;2023-12-20T02:59:13;7.70;99.90
5246;DHT22;54412;51.206;6.888;2023-12-20T03:01:43;7.60;99.90
5246;DHT22;54412;51.206;6.888;2023-12-20T03:04:10;7.60;99.90
5246;DHT22;54412;51.206;6.888;2023-12-20T03:06:36;7.50;99.90
5246;DHT22;54412;51.206;6.888;2023-12-20T03:09:02;7.50;99.90
5246;DHT22;54412;51.206;6.888;2023-12-20T03:11:28;7.50;99.90
5246;DHT22;54412;51.206;6.888;2023-12-20T03:13:55;7.50;99.90
5246;DHT22;54412;51.206;6.888;2023-12-20T03:16:21;7.50;99.90
5246;DHT22;54412;51.206;6.888;2023-12-20T03:18:46;7.50;99.90
5246;DHT22;54412;51.206;6.888;2023-12-20T03:21:12;7.50;99.90
5246;DHT22;54412;51.206;6.888;2023-12-20T03:23:37;7.50;99.90
5246;DHT22;54412;51.206;6.888;2023-12-20T03:26:03;7.50;99.90
5246;DHT22;54412;51.206;6.888;2023-12-20T03:28:32;7.50;99.90
5246;DHT22;54412;51.206;6.888;2023-12-20T03:30:58;7.60;99.90
5246;DHT22;54412;51.206;6.888;2023-12-20T03:33:24;7.60;99.90
5246;DHT22;54412;51.206;6.888;2023-12-20T03:35:49;7.60;99.90
5246;DHT22;54412;51.206;6.888;2023-12-20T03:38:15;7.40;99.90
5246;DHT22;54412;51.206;6.888;2023-12-20T03:40:41;7.50;99.90
5246;DHT22;54412;51.206;6.888;2023-12-20T03:43:06;7.50;99.90
5246;DHT22;54412;51.206;6.888;2023-12-20T03:45:32;7.40;99.90
5246;DHT22;54412;51.206;6.888;2023-12-20T03:47:57;7.40;99.90
5246;DHT22;54412;51.206;6.888;2023-12-20T03:50:23;7.40;99.90
5246;DHT22;54412;51.206;6.888;2023-12-20T03:52:49;7.30;99.90
5246;DHT22;54412;51.206;6.888;2023-12-20T03:55:15;7.30;99.90
5246;DHT22;54412;51.206;6.888;2023-12-20T03:57:41;7.30;99.90
5246;DHT22;54412;51.206;6.888;2023-12-20T04:00:07;7.20;99.90
5246;DHT22;54412;51.206;6.888;2023-12-20T04:02:37;7.30;99.90
5246;DHT22;54412;51.206;6.888;2023-12-20T04:05:04;7.30;99.90
5246;DHT22;54412;51.206;6.888;2023-12-20T04:07:30;7.30;99.90
5246;DHT22;54412;51.206;6.888;2023-12-20T04:09:56;7.30;99.90
5246;DHT22;54412;51.206;6.888;2023-12-20T04:12:22;7.30;99.90
5246;DHT22;54412;51.206;6.888;2023-12-20T04:14:48;7.30;99.90
5246;DHT22;54412;51.206;6.888;2023-12-20T04:17:14;7.10;99.90
5246;DHT22;54412;51.206;6.888;2023-12-20T04:19:41;7.20;99.90
5246;DHT22;54412;51.206;6.888;2023-12-20T04:22:08;7.10;99.90
5246;DHT22;54412;51.206;6.888;2023-12-20T04:24:34;7.10;99.90
5246;DHT22;54412;51.206;6.888;2023-12-20T04:27:00;7.00;99.90
5246;DHT22;54412;51.206;6.888;2023-12-20T04:29:26;7.00;99.90
5246;DHT22;54412;51.206;6.888;2023-12-20T04:31:52;7.00;99.90
5246;DHT22;54412;51.206;6.888;2023-12-20T04:34:18;7.10;99.90
5246;DHT22;54412;51.206;6.888;2023-12-20T04:36:44;7.00;99.90
5246;DHT22;54412;51.206;6.888;2023-12-20T04:39:12;7.00;99.90
5246;DHT22;54412;51.206;6.888;2023-12-20T04:41:38;7.00;99.90
5246;DHT22;54412;51.206;6.888;2023-12-20T04:44:04;7.10;99.90
5246;DHT22;54412;51.206;6.888;2023-12-20T04:46:29;7.10;99.90
5246;DHT22;54412;51.206;6.888;2023-12-20T04:48:55;7.00;99.90
5246;DHT22;54412;51.206;6.888;2023-12-20T04:51:21;7.10;99.90
5246;DHT22;54412;51.206;6.888;2023-12-20T04:53:47;7.00;99.90
5246;DHT22;54412;51.206;6.888;2023-12-20T04:56:12;7.00;99.90
5246;DHT22;54412;51.206;6.888;2023-12-20T04:58:38;7.00;99.90
5246;DHT22;54412;51.206;6.888;2023-12-20T05:01:06;7.00;99.90
5246;DHT22;54412;51.206;6.888;2023-12-20T05:03:33;7.10;99.90
5246;DHT22;54412;51.206;6.888;2023-12-20T05:05:59;7.00;99.90
5246;DHT22;54412;51.206;6.888;2023-12-20T05:08:24;7.00;99.90
5246;DHT22;54412;51.206;6.888;2023-12-20T05:10:52;7.10;99.90
5246;DHT22;54412;51.206;6.888;2023-12-20T05:13:20;7.10;99.90
5246;DHT22;54412;51.206;6.888;2023-12-20T05:15:46;7.20;99.90
5246;DHT22;54412;51.206;6.888;2023-12-20T05:18:12;7.10;99.90
5246;DHT22;54412;51.206;6.888;2023-12-20T05:20:38;7.00;99.90
5246;DHT22;54412;51.206;6.888;2023-12-20T05:23:04;6.90;99.90
5246;DHT22;54412;51.206;6.888;2023-12-20T05:25:30;7.00;99.90
5246;DHT22;54412;51.206;6.888;2023-12-20T05:27:56;7.10;99.90
5246;DHT22;54412;51.206;6.888;2023-12-20T05:30:22;7.10;99.90
5246;DHT22;54412;51.206;6.888;2023-12-20T05:32:48;7.00;99.90
5246;DHT22;54412;51.206;6.888;2023-12-20T05:35:13;7.00;99.90
5246;DHT22;54412;51.206;6.888;2023-12-20T05:37:40;7.00;99.90
5246;DHT22;54412;51.206;6.888;2023-12-20T05:40:07;7.10;99.90
5246;DHT22;54412;51.206;6.888;2023-12-20T05:42:36;7.10;99.90
5246;DHT22;54412;51.206;6.888;2023-12-20T05:45:03;7.00;99.90
5246;DHT22;54412;51.206;6.888;2023-12-20T05:47:30;7.00;99.90
5246;DHT22;54412;51.206;6.888;2023-12-20T05:49:55;6.90;99.90
5246;DHT22;54412;51.206;6.888;2023-12-20T05:52:21;7.00;99.90
5246;DHT22;54412;51.206;6.888;2023-12-20T05:54:47;7.00;99.90
5246;DHT22;54412;51.206;6.888;2023-12-20T05:57:13;6.80;99.90
5246;DHT22;54412;51.206;6.888;2023-12-20T05:59:38;6.90;99.90
5246;DHT22;54412;51.206;6.888;2023-12-20T06:02:05;6.90;99.90
5246;DHT22;54412;51.206;6.888;2023-12-20T06:04:30;7.00;99.90
5246;DHT22;54412;51.206;6.888;2023-12-20T06:06:57;7.00;99.90
5246;DHT22;54412;51.206;6.888;2023-12-20T06:09:22;7.00;99.90
5246;DHT22;54412;51.206;6.888;2023-12-20T06:11:49;7.10;99.90
5246;DHT22;54412;51.206;6.888;2023-12-20T06:14:15;7.30;99.90
5246;DHT22;54412;51.206;6.888;2023-12-20T06:16:41;7.50;99.90
5246;DHT22;54412;51.206;6.888;2023-12-20T06:19:07;7.30;99.90
5246;DHT22;54412;51.206;6.888;2023-12-20T06:21:33;7.40;99.90
5246;DHT22;54412;51.206;6.888;2023-12-20T06:23:59;7.60;99.90
5246;DHT22;54412;51.206;6.888;2023-12-20T06:26:25;7.60;99.90
5246;DHT22;54412;51.206;6.888;2023-12-20T06:28:51;7.50;99.90
5246;DHT22;54412;51.206;6.888;2023-12-20T06:31:16;7.60;99.90
5246;DHT22;54412;51.206;6.888;2023-12-20T06:33:43;7.70;99.90
5246;DHT22;54412;51.206;6.888;2023-12-20T06:36:12;7.50;99.90
5246;DHT22;54412;51.206;6.888;2023-12-20T06:38:39;7.50;99.90
5246;DHT22;54412;51.206;6.888;2023-12-20T06:41:05;7.40;99.90
5246;DHT22;54412;51.206;6.888;2023-12-20T06:43:31;7.30;99.90
5246;DHT22;54412;51.206;6.888;2023-12-20T06:45:58;7.30;99.90
5246;DHT22;54412;51.206;6.888;2023-12-20T06:48:24;7.20;99.90
5246;DHT22;54412;51.206;6.888;2023-12-20T06:50:49;7.20;99.90
5246;DHT22;54412;51.206;6.888;2023-12-20T06:53:15;7.10;99.90
5246;DHT22;54412;51.206;6.888;2023-12-20T06:55:41;7.20;99.90
5246;DHT22;54412;51.206;6.888;2023-12-20T06:58:07;7.20;99.90
5246;DHT22;54412;51.206;6.888;2023-12-20T07:00:34;7.10;99.90
5246;DHT22;54412;51.206;6.888;2023-12-20T07:03:00;7.10;99.90
5246;DHT22;54412;51.206;6.888;2023-12-20T07:05:26;7.10;99.90
5246;DHT22;54412;51.206;6.888;2023-12-20T07:07:52;7.20;99.90
5246;DHT22;54412;51.206;6.888;2023-12-20T07:10:17;7.30;99.90
5246;DHT22;54412;51.206;6.888;2023-12-20T07:12:43;7.30;99.90
5246;DHT22;54412;51.206;6.888;2023-12-20T07:15:09;7.20;99.90
5246;DHT22;54412;51.206;6.888;2023-12-20T07:17:35;7.30;99.90
5246;DHT22;54412;51.206;6.888;2023-12-20T07:20:03;7.20;99.90
5246;DHT22;54412;51.206;6.888;2023-12-20T07:22:33;7.30;99.90
5246;DHT22;54412;51.206;6.888;2023-12-20T07:24:59;7.30;99.90
5246;DHT22;54412;51.206;6.888;2023-12-20T07:27:26;7.20;99.90
5246;DHT22;54412;51.206;6.888;2023-12-20T07:29:52;7.20;99.90
5246;DHT22;54412;51.206;6.888;2023-12-20T07:32:18;7.30;99.90
5246;DHT22;54412;51.206;6.888;2023-12-20T07:34:43;7.30;99.90
5246;DHT22;54412;51.206;6.888;2023-12-20T07:37:09;7.30;99.90
5246;DHT22;54412;51.206;6.888;2023-12-20T07:39:39;7.40;99.90
5246;DHT22;54412;51.206;6.888;2023-12-20T07:42:09;7.30;99.90
5246;DHT22;54412;51.206;6.888;2023-12-20T07:44:35;7.40;99.90
5246;DHT22;54412;51.206;6.888;2023-12-20T07:47:04;7.40;99.90
5246;DHT22;54412;51.206;6.888;2023-12-20T07:49:31;7.30;99.90
5246;DHT22;54412;51.206;6.888;2023-12-20T07:51:57;7.40;99.90
5246;DHT22;54412;51.206;6.888;2023-12-20T07:54:22;7.40;99.90
5246;DHT22;54412;51.206;6.888;2023-12-20T07:56:49;7.50;99.90
5246;DHT22;54412;51.206;6.888;2023-12-20T07:59:15;7.60;99.90
5246;DHT22;54412;51.206;6.888;2023-12-20T08:01:40;7.60;99.90
5246;DHT22;54412;51.206;6.888;2023-12-20T08:04:07;7.50;99.90
5246;DHT22;54412;51.206;6.888;2023-12-20T08:06:33;7.50;99.90
5246;DHT22;54412;51.206;6.888;2023-12-20T08:08:59;7.40;99.90
5246;DHT22;54412;51.206;6.888;2023-12-20T08:11:24;7.40;99.90
5246;DHT22;54412;51.206;6.888;2023-12-20T08:13:50;7.50;99.90
5246;DHT22;54412;51.206;6.888;2023-12-20T08:16:16;7.30;99.90
5246;DHT22;54412;51.206;6.888;2023-12-20T08:18:43;7.40;99.90
5246;DHT22;54412;51.206;6.888;2023-12-20T08:21:09;7.50;99.90
5246;DHT22;54412;51.206;6.888;2023-12-20T08:23:35;7.50;99.90
5246;DHT22;54412;51.206;6.888;2023-12-20T08:26:07;7.60;99.90
5246;DHT22;54412;51.206;6.888;2023-12-20T08:28:33;7.50;99.90
5246;DHT22;54412;51.206;6.888;2023-12-20T08:31:00;7.50;99.90
5246;DHT22;54412;51.206;6.888;2023-12-20T08:33:26;7.60;99.90
5246;DHT22;54412;51.206;6.888;2023-12-20T08:35:52;7.60;99.90
5246;DHT22;54412;51.206;6.888;2023-12-20T08:38:17;7.50;99.90
5246;DHT22;54412;51.206;6.888;2023-12-20T08:40:44;7.50;99.90
5246;DHT22;54412;51.206;6.888;2023-12-20T08:43:10;7.40;99.90
5246;DHT22;54412;51.206;6.888;2023-12-20T08:45:36;7.50;99.90
5246;DHT22;54412;51.206;6.888;2023-12-20T08:48:02;7.40;99.90
5246;DHT22;54412;51.206;6.888;2023-12-20T08:50:28;7.40;99.90
5246;DHT22;54412;51.206;6.888;2023-12-20T08:52:54;7.40;99.90
5246;DHT22;54412;51.206;6.888;2023-12-20T08:55:20;7.20;99.90
5246;DHT22;54412;51.206;6.888;2023-12-20T08:57:46;7.30;99.90
5246;DHT22;54412;51.206;6.888;2023-12-20T09:00:12;7.40;99.90
5246;DHT22;54412;51.206;6.888;2023-12-20T09:02:38;7.40;99.90
5246;DHT22;54412;51.206;6.888;2023-12-20T09:05:04;7.50;99.90
5246;DHT22;54412;51.206;6.888;2023-12-20T09:07:30;7.40;99.90
5246;DHT22;54412;51.206;6.888;2023-12-20T09:09:57;7.50;99.90
5246;DHT22;54412;51.206;6.888;2023-12-20T09:12:23;7.40;99.90
5246;DHT22;54412;51.206;6.888;2023-12-20T09:14:50;7.30;99.90
5246;DHT22;54412;51.206;6.888;2023-12-20T09:17:18;7.40;99.90
5246;DHT22;54412;51.206;6.888;2023-12-20T09:19:44;7.50;99.90
5246;DHT22;54412;51.206;6.888;2023-12-20T09:22:11;7.40;99.90
5246;DHT22;54412;51.206;6.888;2023-12-20T09:24:37;7.50;99.90
5246;DHT22;54412;51.206;6.888;2023-12-20T09:27:04;7.50;99.90
5246;DHT22;54412;51.206;6.888;2023-12-20T09:29:30;7.50;99.90
5246;DHT22;54412;51.206;6.888;2023-12-20T09:31:56;7.40;99.90
5246;DHT22;54412;51.206;6.888;2023-12-20T09:34:23;7.40;99.90
5246;DHT22;54412;51.206;6.888;2023-12-20T09:36:49;7.40;99.90
5246;DHT22;54412;51.206;6.888;2023-12-20T09:39:17;7.40;99.90
5246;DHT22;54412;51.206;6.888;2023-12-20T09:42:03;7.50;99.90
5246;DHT22;54412;51.206;6.888;2023-12-20T09:44:31;7.40;99.90
5246;DHT22;54412;51.206;6.888;2023-12-20T09:46:58;7.40;99.90
5246;DHT22;54412;51.206;6.888;2023-12-20T09:49:27;7.30;99.90
5246;DHT22;54412;51.206;6.888;2023-12-20T09:51:54;7.30;99.90
5246;DHT22;54412;51.206;6.888;2023-12-20T09:54:21;7.30;99.90
5246;DHT22;54412;51.206;6.888;2023-12-20T09:56:48;7.30;99.90
5246;DHT22;54412;51.206;6.888;2023-12-20T09:59:14;7.40;99.90
5246;DHT22;54412;51.206;6.888;2023-12-20T10:01:41;7.50;99.90
5246;DHT22;54412;51.206;6.888;2023-12-20T10:04:09;7.50;99.90
5246;DHT22;54412;51.206;6.888;2023-12-20T10:06:41;7.50;99.90
5246;DHT22;54412;51.206;6.888;2023-12-20T10:09:08;7.60;99.90
5246;DHT22;54412;51.206;6.888;2023-12-20T10:11:36;7.60;99.90
5246;DHT22;54412;51.206;6.888;2023-12-20T10:14:05;7.40;99.90
5246;DHT22;54412;51.206;6.888;2023-12-20T10:16:32;7.60;99.90
5246;DHT22;54412;51.206;6.888;2023-12-20T10:19:00;7.60;99.90
5246;DHT22;54412;51.206;6.888;2023-12-20T10:21:27;7.60;99.90
5246;DHT22;54412;51.206;6.888;2023-12-20T10:23:56;7.50;99.90
5246;DHT22;54412;51.206;6.888;2023-12-20T10:26:24;7.50;99.90
5246;DHT22;54412;51.206;6.888;2023-12-20T10:28:53;7.40;99.90
5246;DHT22;54412;51.206;6.888;2023-12-20T10:31:31;7.50;99.90
5246;DHT22;54412;51.206;6.888;2023-12-20T10:33:58;7.60;99.90
5246;DHT22;54412;51.206;6.888;2023-12-20T10:36:26;7.70;99.90
5246;DHT22;54412;51.206;6.888;2023-12-20T10:38:54;7.60;99.90
5246;DHT22;54412;51.206;6.888;2023-12-20T10:41:32;7.40;99.90
5246;DHT22;54412;51.206;6.888;2023-12-20T10:44:03;7.60;99.90
5246;DHT22;54412;51.206;6.888;2023-12-20T10:46:30;7.50;99.90
5246;DHT22;54412;51.206;6.888;2023-12-20T10:48:58;7.50;99.90
5246;DHT22;54412;51.206;6.888;2023-12-20T10:51:25;7.40;99.90
5246;DHT22;54412;51.206;6.888;2023-12-20T10:53:56;7.50;99.90
5246;DHT22;54412;51.206;6.888;2023-12-20T10:56:22;7.40;99.90
5246;DHT22;54412;51.206;6.888;2023-12-20T10:58:49;7.40;99.90
5246;DHT22;54412;51.206;6.888;2023-12-20T11:01:19;7.50;99.90
5246;DHT22;54412;51.206;6.888;2023-12-20T11:03:50;7.50;99.90
5246;DHT22;54412;51.206;6.888;2023-12-20T11:06:43;7.60;99.90
5246;DHT22;54412;51.206;6.888;2023-12-20T11:17:07;7.50;99.90
5246;DHT22;54412;51.206;6.888;2023-12-20T11:22:22;7.70;99.90
5246;DHT22;54412;51.206;6.888;2023-12-20T11:24:51;7.80;99.90
5246;DHT22;54412;51.206;6.888;2023-12-20T11:27:19;7.80;99.90
5246;DHT22;54412;51.206;6.888;2023-12-20T11:29:52;7.90;99.90
5246;DHT22;54412;51.206;6.888;2023-12-20T11:34:53;7.90;99.90
5246;DHT22;54412;51.206;6.888;2023-12-20T11:37:20;7.80;99.90
5246;DHT22;54412;51.206;6.888;2023-12-20T11:40:00;7.60;99.90
5246;DHT22;54412;51.206;6.888;2023-12-20T11:42:27;7.60;99.90
5246;DHT22;54412;51.206;6.888;2023-12-20T11:44:53;7.60;99.90
5246;DHT22;54412;51.206;6.888;2023-12-20T11:47:19;7.60;99.90
5246;DHT22;54412;51.206;6.888;2023-12-20T11:49:48;7.60;99.90
5246;DHT22;54412;51.206;6.888;2023-12-20T11:52:14;7.60;99.90
5246;DHT22;54412;51.206;6.888;2023-12-20T11:54:40;7.60;99.90
5246;DHT22;54412;51.206;6.888;2023-12-20T11:57:05;7.70;99.90
5246;DHT22;54412;51.206;6.888;2023-12-20T11:59:31;7.70;99.90
5246;DHT22;54412;51.206;6.888;2023-12-20T12:01:58;7.70;99.90
5246;DHT22;54412;51.206;6.888;2023-12-20T12:04:26;7.70;99.90
5246;DHT22;54412;51.206;6.888;2023-12-20T12:06:53;7.70;99.90
5246;DHT22;54412;51.206;6.888;2023-12-20T12:09:19;7.70;99.90
5246;DHT22;54412;51.206;6.888;2023-12-20T12:11:45;7.70;99.90
5246;DHT22;54412;51.206;6.888;2023-12-20T12:14:11;7.80;99.90
5246;DHT22;54412;51.206;6.888;2023-12-20T12:16:37;7.80;99.90
5246;DHT22;54412;51.206;6.888;2023-12-20T12:19:02;7.80;99.90
5246;DHT22;54412;51.206;6.888;2023-12-20T12:21:29;7.80;99.90
5246;DHT22;54412;51.206;6.888;2023-12-20T12:24:08;7.80;99.90
5246;DHT22;54412;51.206;6.888;2023-12-20T12:26:34;7.80;99.90
5246;DHT22;54412;51.206;6.888;2023-12-20T12:29:00;7.80;99.90
5246;DHT22;54412;51.206;6.888;2023-12-20T12:31:26;7.80;99.90
5246;DHT22;54412;51.206;6.888;2023-12-20T12:33:52;7.80;99.90
5246;DHT22;54412;51.206;6.888;2023-12-20T12:36:17;7.70;99.90
5246;DHT22;54412;51.206;6.888;2023-12-20T12:38:43;7.70;99.90
5246;DHT22;54412;51.206;6.888;2023-12-20T12:41:12;7.70;99.90
5246;DHT22;54412;51.206;6.888;2023-12-20T12:43:38;7.70;99.90
5246;DHT22;54412;51.206;6.888;2023-12-20T12:46:04;7.60;99.90
5246;DHT22;54412;51.206;6.888;2023-12-20T12:48:29;7.80;99.90
5246;DHT22;54412;51.206;6.888;2023-12-20T12:50:55;7.90;99.90
5246;DHT22;54412;51.206;6.888;2023-12-20T12:53:25;7.90;99.90
5246;DHT22;54412;51.206;6.888;2023-12-20T12:55:52;7.90;99.90
5246;DHT22;54412;51.206;6.888;2023-12-20T12:58:19;7.90;99.90
5246;DHT22;54412;51.206;6.888;2023-12-20T13:00:45;7.90;99.90
5246;DHT22;54412;51.206;6.888;2023-12-20T13:03:10;7.90;99.90
5246;DHT22;54412;51.206;6.888;2023-12-20T13:05:36;7.80;99.90
5246;DHT22;54412;51.206;6.888;2023-12-20T13:08:03;7.70;99.90
5246;DHT22;54412;51.206;6.888;2023-12-20T13:10:29;7.70;99.90
5246;DHT22;54412;51.206;6.888;2023-12-20T13:12:55;7.70;99.90
5246;DHT22;54412;51.206;6.888;2023-12-20T13:15:20;7.70;99.90
5246;DHT22;54412;51.206;6.888;2023-12-20T13:17:46;7.60;99.90
5246;DHT22;54412;51.206;6.888;2023-12-20T13:20:12;7.60;99.90
5246;DHT22;54412;51.206;6.888;2023-12-20T13:22:37;7.60;99.90
5246;DHT22;54412;51.206;6.888;2023-12-20T13:25:03;7.70;99.90
5246;DHT22;54412;51.206;6.888;2023-12-20T13:27:29;7.70;99.90
5246;DHT22;54412;51.206;6.888;2023-12-20T13:29:55;7.50;99.90
5246;DHT22;54412;51.206;6.888;2023-12-20T13:32:20;7.60;99.90
5246;DHT22;54412;51.206;6.888;2023-12-20T13:34:46;7.60;99.90
5246;DHT22;54412;51.206;6.888;2023-12-20T13:37:12;7.60;99.90
5246;DHT22;54412;51.206;6.888;2023-12-20T13:39:38;7.80;99.90
5246;DHT22;54412;51.206;6.888;2023-12-20T13:42:05;7.90;99.90
5246;DHT22;54412;51.206;6.888;2023-12-20T13:44:30;7.80;99.90
5246;DHT22;54412;51.206;6.888;2023-12-20T13:46:56;7.90;99.90
5246;DHT22;54412;51.206;6.888;2023-12-20T13:49:21;8.10;99.90
5246;DHT22;54412;51.206;6.888;2023-12-20T13:51:50;7.90;99.90
5246;DHT22;54412;51.206;6.888;2023-12-20T13:54:16;8.10;99.90
5246;DHT22;54412;51.206;6.888;2023-12-20T13:56:45;8.00;99.90
5246;DHT22;54412;51.206;6.888;2023-12-20T13:59:11;8.00;99.90
5246;DHT22;54412;51.206;6.888;2023-12-20T14:01:38;7.90;99.90
5246;DHT22;54412;51.206;6.888;2023-12-20T14:04:03;7.90;99.90
5246;DHT22;54412;51.206;6.888;2023-12-20T14:06:29;7.80;99.90
5246;DHT22;54412;51.206;6.888;2023-12-20T14:08:55;7.70;99.90
5246;DHT22;54412;51.206;6.888;2023-12-20T14:11:21;7.70;99.90
5246;DHT22;54412;51.206;6.888;2023-12-20T14:13:46;7.70;99.90
5246;DHT22;54412;51.206;6.888;2023-12-20T14:16:12;7.70;99.90
5246;DHT22;54412;51.206;6.888;2023-12-20T14:18:38;7.70;99.90
5246;DHT22;54412;51.206;6.888;2023-12-20T14:21:05;7.80;99.90
5246;DHT22;54412;51.206;6.888;2023-12-20T14:23:32;7.70;99.90
5246;DHT22;54412;51.206;6.888;2023-12-20T14:25:59;7.70;99.90
5246;DHT22;54412;51.206;6.888;2023-12-20T14:28:25;7.80;99.90
5246;DHT22;54412;51.206;6.888;2023-12-20T14:30:51;7.80;99.90
5246;DHT22;54412;51.206;6.888;2023-12-20T14:33:17;7.90;99.90
5246;DHT22;54412;51.206;6.888;2023-12-20T14:35:45;7.90;99.90
5246;DHT22;54412;51.206;6.888;2023-12-20T14:38:11;7.90;99.90
5246;DHT22;54412;51.206;6.888;2023-12-20T14:40:38;7.90;99.90
5246;DHT22;54412;51.206;6.888;2023-12-20T14:43:04;8.00;99.90
5246;DHT22;54412;51.206;6.888;2023-12-20T14:45:30;8.00;99.90
5246;DHT22;54412;51.206;6.888;2023-12-20T14:47:55;7.90;99.90
5246;DHT22;54412;51.206;6.888;2023-12-20T14:50:21;7.90;99.90
5246;DHT22;54412;51.206;6.888;2023-12-20T14:52:47;7.90;99.90
5246;DHT22;54412;51.206;6.888;2023-12-20T14:55:13;7.90;99.90
5246;DHT22;54412;51.206;6.888;2023-12-20T14:57:39;7.90;99.90
5246;DHT22;54412;51.206;6.888;2023-12-20T15:00:05;7.90;99.90
5246;DHT22;54412;51.206;6.888;2023-12-20T15:02:32;8.00;99.90
5246;DHT22;54412;51.206;6.888;2023-12-20T15:04:58;8.00;99.90
5246;DHT22;54412;51.206;6.888;2023-12-20T15:07:23;8.00;99.90
5246;DHT22;54412;51.206;6.888;2023-12-20T15:09:49;8.00;99.90
5246;DHT22;54412;51.206;6.888;2023-12-20T15:12:15;8.00;99.90
5246;DHT22;54412;51.206;6.888;2023-12-20T15:14:40;8.10;99.90
5246;DHT22;54412;51.206;6.888;2023-12-20T15:17:06;8.20;99.90
5246;DHT22;54412;51.206;6.888;2023-12-20T15:19:32;8.10;99.90
5246;DHT22;54412;51.206;6.888;2023-12-20T15:21:58;8.00;99.90
5246;DHT22;54412;51.206;6.888;2023-12-20T15:24:25;8.10;99.90
5246;DHT22;54412;51.206;6.888;2023-12-20T15:27:02;8.10;99.90
5246;DHT22;54412;51.206;6.888;2023-12-20T15:29:29;8.10;99.90
5246;DHT22;54412;51.206;6.888;2023-12-20T15:31:56;8.10;99.90
5246;DHT22;54412;51.206;6.888;2023-12-20T15:34:22;8.10;99.90
5246;DHT22;54412;51.206;6.888;2023-12-20T15:36:48;8.10;99.90
5246;DHT22;54412;51.206;6.888;2023-12-20T15:39:13;8.10;99.90
5246;DHT22;54412;51.206;6.888;2023-12-20T15:41:41;8.20;99.90
5246;DHT22;54412;51.206;6.888;2023-12-20T15:44:08;8.20;99.90
5246;DHT22;54412;51.206;6.888;2023-12-20T15:46:33;8.20;99.90
5246;DHT22;54412;51.206;6.888;2023-12-20T15:48:59;8.20;99.90
5246;DHT22;54412;51.206;6.888;2023-12-20T15:51:25;8.20;99.90
5246;DHT22;54412;51.206;6.888;2023-12-20T15:53:50;8.20;99.90
5246;DHT22;54412;51.206;6.888;2023-12-20T15:56:22;8.30;99.90
5246;DHT22;54412;51.206;6.888;2023-12-20T15:58:48;8.30;99.90
5246;DHT22;54412;51.206;6.888;2023-12-20T16:01:16;8.20;99.90
5246;DHT22;54412;51.206;6.888;2023-12-20T16:03:43;8.20;99.90
5246;DHT22;54412;51.206;6.888;2023-12-20T16:06:09;8.20;99.90
5246;DHT22;54412;51.206;6.888;2023-12-20T16:08:36;8.20;99.90
5246;DHT22;54412;51.206;6.888;2023-12-20T16:11:02;8.20;99.90